ADDS METAR Data INFO
IDs: Format: Raw Decoded Include TAF

Data at: 0043 UTC 22 Oct 2017

PPIZ 212156Z AUTO 13007KT 10SM CLR M14/M16 A2949 RMK AO2 SLP990 T11441161 FZRANO TSNO
PPIZ 212056Z AUTO 14009KT 10SM CLR M14/M16 A2948 RMK AO2 SNB12E43 SLP987 P0000 60000 T11441161 53001 FZRANO TSNO
PPIZ 212038Z AUTO 15009KT 5SM -SN BR CLR M15/M17 A2948 RMK AO2 SNB12 P0000 FZRANO TSNO
PPIZ 212029Z AUTO 15009KT 1 1/2SM -SN BR CLR M15/M17 A2948 RMK AO2 SNB12 P0000 FZRANO TSNO
PPIZ 212017Z AUTO 15009KT 2SM -SN BR CLR M16/M17 A2948 RMK AO2 SNB12 P0000 FZRANO TSNO
PPIZ 211956Z AUTO 15009KT 9SM CLR M16/M18 A2948 RMK AO2 SNB20E54 SLP987 P0000 T11611178 FZRANO TSNO
PPIZ 211935Z AUTO 16010KT 9SM CLR M17/M18 A2948 RMK AO2 SNB20E30 P0000 FZRANO TSNO
PPIZ 211925Z AUTO 16008KT 2 1/2SM -SN BR CLR M17/M19 A2948 RMK AO2 SNB20 P0000 FZRANO TSNO
PPIZ 211756Z AUTO 15010KT 10SM CLR M18/M19 A2948 RMK AO2 SLP986 60000 T11781194 11178 21206 55002 FZRANO TSNO
PPIZ 211556Z AUTO 16010KT 9SM BKN001 M19/M21 A2948 RMK AO2 SNE53 SLP986 P0000 T11891206 FZRANO TSNO
PPIZ 211538Z AUTO 8SM -SN SCT003 M18/M21 A2948 RMK AO2 P0000 FZRANO TSNO
PPIZ 211512Z AUTO 16006KT 2SM BR OVC003 M18/M20 A2949 RMK AO2 SNE08 P0000 FZRANO TSNO
PPIZ 211509Z AUTO 16006KT 1SM BR OVC003 M18/M20 A2949 RMK AO2 SNE08 P0000 FZRANO TSNO
PPIZ 211456Z AUTO 17010KT 1/2SM -SN FZFG OVC003 M19/M21 A2948 RMK AO2 SNE28B50 SLP988 P0000 60000 T11891206 56004 FZRANO TSNO
PPIZ 211435Z AUTO 16008KT 3/4SM BR OVC003 M19/M21 A2949 RMK AO2 SNE28 P0000 FZRANO TSNO
PPIZ 211425Z AUTO 17008KT 1/2SM -SN FZFG OVC003 M19/M21 A2949 RMK AO2 P0000 FZRANO TSNO
PPIZ 211356Z AUTO 17007KT 3/4SM -SN BR OVC003 M19/M21 A2949 RMK AO2 SNB07E20B43 SLP990 P0000 T11891211 FZRANO TSNO
PPIZ 211302Z AUTO 17008KT 1/2SM FZFG OVC003 M20/M22 A2949 RMK AO2 FZRANO TSNO
PPIZ 211256Z AUTO 16007KT 1SM BR OVC003 M20/M22 A2950 RMK AO2 SNB1158E13B35E45 SLP992 P0000 T12001222 FZRANO TSNO
PPIZ 211253Z AUTO 15007KT 1SM BR OVC003 M20/M22 A2950 RMK AO2 SNB1158E13B35E45 P0000 FZRANO TSNO
PPIZ 211207Z AUTO 15007KT 3/4SM -SN BR BKN003 M20/M22 A2951 RMK AO2 SNB1158 P0000 FZRANO TSNO
PPIZ 211152Z AUTO 16005KT 1 1/4SM BR SCT003 M18/M20 A2951 RMK AO2 VIS 3/4V2 1/2 SNB36E50 P0000 FZRANO TSNO
PPIZ 211145Z AUTO 17007KT 1 3/4SM -SN BR BKN003 M18/M20 A2950 RMK AO2 VIS 1V2 1/2 SNB36 P0000 FZRANO TSNO
PPIZ 211137Z AUTO 17007KT 1SM -SN BR BKN003 M18/M20 A2950 RMK AO2 SNB36 P0000 FZRANO TSNO
PPIZ 211133Z AUTO 17007KT 1/2SM FZFG BKN003 M18/M21 A2951 RMK AO2 FZRANO TSNO
PPIZ 211124Z AUTO 16005KT 3/4SM BR BKN003 M18/M21 A2951 RMK AO2 FZRANO TSNO
PPIZ 211118Z AUTO 15006KT 1 1/4SM BR BKN003 M18/M20 A2951 RMK AO2 VIS 1/2V2 1/2 FZRANO TSNO
PPIZ 211115Z AUTO 15007KT 3/4SM BR BKN003 M18/M20 A2951 RMK AO2 VIS 1/4V2 1/2 FZRANO TSNO
PPIZ 211107Z AUTO 16006KT 1/4SM FZFG OVC003 M18/M20 A2951 RMK AO2 FZRANO TSNO
PPIZ 211102Z AUTO 15007KT 3/4SM BR OVC003 M18/M20 A2951 RMK AO2 FZRANO TSNO
PPIZ 211056Z AUTO 14004KT 1 1/2SM BR OVC003 M18/M20 A2951 RMK AO2 SNB38E48 SLP997 P0000 T11831200 FZRANO TSNO
PPIZ 211028Z AUTO 17004KT 1SM BR VV002 M17/M18 A2951 RMK AO2 FZRANO TSNO
PPIZ 211014Z AUTO 20004KT 2 1/2SM BR FEW003 M17/M19 A2951 RMK AO2 VIS 1 3/4V4 FZRANO TSNO
PPIZ 211003Z AUTO 17003KT 1 1/4SM BR SCT003 M17/M19 A2952 RMK AO2 FZRANO TSNO
PPIZ 210956Z AUTO 13003KT 3/4SM BR BKN003 M17/M19 A2952 RMK AO2 SLP000 T11721189 FZRANO TSNO
PPIZ 210927Z AUTO 09004KT 1 3/4SM BR SCT003 BKN036 M16/M17 A2952 RMK AO2 FZRANO TSNO
PPIZ 210920Z AUTO 10004KT 1SM BR VV003 M16/M17 A2952 RMK AO2 FZRANO TSNO
PPIZ 210912Z AUTO 09005KT 3/4SM BR BKN002 BKN031 M17/M19 A2952 RMK AO2 FZRANO TSNO
PPIZ 210904Z AUTO 11005KT 1 1/2SM BR BKN002 BKN031 M17/M19 A2952 RMK AO2 FZRANO TSNO
PPIZ 210856Z AUTO 10003KT 2SM BR SCT002 SCT031 M17/M19 A2952 RMK AO2 SNE08B25E35 SLP000 P0000 60000 T11721189 411111217 53002 FZRANO TSNO
PPIZ 210848Z AUTO 11003KT 1SM BR BKN002 BKN031 M17/M19 A2952 RMK AO2 SNE08B25E35 P0000 FZRANO TSNO
PPIZ 210837Z AUTO 00000KT 1/2SM FZFG OVC002 M16/M18 A2952 RMK AO2 SNE08B25E35 P0000 FZRANO TSNO
PPIZ 210828Z AUTO 14004KT 3/4SM -SN BR BKN002 OVC060 M16/M17 A2952 RMK AO2 SNE08B25 P0000 FZRANO TSNO
PPIZ 210808Z AUTO 11006KT 1/2SM FZFG BKN002 BKN008 OVC060 M15/M16 A2952 RMK AO2 SNE08 P0000 FZRANO TSNO
PPIZ 210756Z AUTO 10007KT 3/4SM -SN BR BKN002 BKN008 OVC060 M15/M16 A2952 RMK AO2 SNE21B42 SLP999 P0000 T11501161 FZRANO TSNO
PPIZ 210737Z AUTO 09006KT 3/4SM BR BKN002 BKN032 BKN055 M16/M17 A2952 RMK AO2 SNE21 P0000 FZRANO TSNO
PPIZ 210730Z AUTO 09006KT 1 1/4SM BR SCT002 BKN032 BKN055 M17/M18 A2952 RMK AO2 SNE21 P0000 FZRANO TSNO
PPIZ 210712Z AUTO 10006KT 1 3/4SM -SN BR FEW040 M16/M18 A2951 RMK AO2 VIS 1V5 P0000 FZRANO TSNO
PPIZ 210656Z AUTO 06006KT 9SM -SN SCT042 M13/M14 A2951 RMK AO2 SNB56 SLP999 P0000 T11331144 FZRANO TSNO
PPIZ 210456Z AUTO 06004KT 10SM SCT055 BKN100 M13/M14 A2951 RMK AO2 SLP997 T11331144 FZRANO TSNO
PPIZ 210356Z AUTO 07008KT 10SM BKN120 M13/M14 A2949 RMK AO2 SLP991 T11331144 FZRANO TSNO
PPIZ 210256Z AUTO 02009KT 10SM OVC100 M14/M16 A2949 RMK AO2 SLP991 60000 T11391156 53002 FZRANO TSNO
PPIZ 210156Z AUTO 07004KT 10SM FEW034 M13/M14 A2948 RMK AO2 SNE39 SLP988 P0000 T11281144 FZRANO TSNO
PPIZ 210128Z AUTO 07003KT 7SM -SN FEW016 SCT034 BKN055 M12/M14 A2948 RMK AO2 P0000 FZRANO TSNO
PPIZ 210117Z AUTO 00000KT 3SM -SN BR BKN020 BKN026 OVC055 M12/M14 A2949 RMK AO2 P0000 FZRANO TSNO
PPIZ 210108Z AUTO 09003KT 1 1/4SM -SN BR BKN020 BKN026 OVC034 M12/M14 A2949 RMK AO2 P0000 FZRANO TSNO
PPIZ 210056Z AUTO 10003KT 2SM -SN BR OVC020 M12/M14 A2949 RMK AO2 SLP989 P0000 T11221139 FZRANO TSNO
PPIZ 210037Z AUTO 11004KT 1 3/4SM -SN BR BKN022 OVC026 M12/M14 A2949 RMK AO2 P0000 FZRANO TSNO
PPIZ 210028Z AUTO 09003KT 2SM -SN BKN022 OVC028 M12/M14 A2948 RMK AO2 P0000 FZRANO TSNO
PPIZ 202356Z AUTO 07003KT 1 1/2SM -SN BKN022 OVC030 M12/M15 A2949 RMK AO2 SLP989 P0000 60000 T11171150 11111 21217 51002 FZRANO TSNO
PPIZ 202346Z AUTO 05003KT 1 3/4SM -SN FEW015 SCT022 OVC030 M11/M15 A2949 RMK AO2 VIS 1 1/4V5 P0000 FZRANO TSNO
PPIZ 202338Z AUTO 00000KT 4SM -SN FEW015 SCT025 OVC032 M11/M16 A2948 RMK AO2 P0000 FZRANO TSNO
PPIZ 202328Z AUTO 01003KT 3SM -SN FEW014 BKN026 OVC032 M12/M16 A2949 RMK AO2 P0000 FZRANO TSNO
PPIZ 202317Z AUTO 00000KT 1 3/4SM -SN BKN024 OVC032 M12/M16 A2948 RMK AO2 P0000 FZRANO TSNO
PPIZ 202256Z AUTO 04003KT 8SM -SN BKN024 OVC034 M13/M17 A2949 RMK AO2 SNB43 SLP989 P0000 T11281172 FZRANO TSNO
PPIZ 202156Z AUTO 05003KT 10SM OVC095 M14/M18 A2948 RMK AO2 SLP987 T11391183 FZRANO TSNO
PPIZ 202056Z AUTO 08004KT 10SM SCT037 SCT048 OVC060 M16/M19 A2948 RMK AO2 SLP986 T11611194 53000 FZRANO TSNO
PPIZ 201956Z AUTO 07008KT 10SM BKN050 OVC065 M19/M22 A2947 RMK AO2 SLP985 T11941217 FZRANO TSNO
PPIZ 201856Z AUTO 04006KT 10SM FEW120 M22/M24 A2948 RMK AO2 SLP986 T12171239 FZRANO TSNO
PPIZ 201756Z AUTO 05010KT 10SM CLR M21/M23 A2948 RMK AO2 SLP986 T12061233 11189 21206 53006 FZRANO TSNO
PPIZ 201656Z AUTO 05011KT 10SM CLR M20/M22 A2947 RMK AO2 SLP984 T12001222 FZRANO TSNO
PPIZ 201556Z AUTO 04013KT 10SM CLR M21/M23 A2946 RMK AO2 SLP981 T12061233 FZRANO TSNO
PPIZ 201456Z AUTO 04015KT 10SM CLR M19/M22 A2946 RMK AO2 SLP980 T11941222 53008 FZRANO TSNO
PPIZ 201356Z AUTO 04017KT 10SM CLR M19/M22 A2945 RMK AO2 SLP977 T11941222 FZRANO TSNO
PPIZ 201256Z AUTO 05015KT 10SM CLR M19/M22 A2944 RMK AO2 SLP975 T11941217 FZRANO TSNO